createdAt,value
2022-09-06T00:03:18.631Z,1.80
2022-09-06T00:08:21.582Z,2.00
2022-09-06T00:13:25.807Z,1.85
2022-09-06T00:18:28.726Z,1.83
2022-09-06T00:23:32.050Z,1.80
2022-09-06T00:28:36.331Z,2.03
2022-09-06T00:33:39.710Z,1.70
2022-09-06T00:38:43.305Z,1.70
2022-09-06T00:43:47.520Z,1.80
2022-09-06T00:48:55.362Z,1.70
2022-09-06T00:53:58.573Z,1.87
2022-09-06T00:59:03.047Z,1.80
2022-09-06T01:04:06.144Z,1.67
2022-09-06T01:09:22.453Z,1.63
2022-09-06T01:14:38.378Z,1.80
2022-09-06T01:20:21.242Z,1.60
2022-09-06T01:25:37.627Z,1.77
2022-09-06T01:30:48.324Z,1.50
2022-09-06T01:35:58.393Z,1.63
2022-09-06T01:41:01.228Z,2.00
2022-09-06T01:46:14.651Z,1.80
2022-09-06T01:51:30.176Z,1.65
2022-09-06T01:56:43.930Z,1.70
2022-09-06T02:01:58.295Z,1.90
2022-09-06T02:07:05.726Z,1.93
2022-09-06T02:12:12.324Z,1.83
2022-09-06T02:17:21.557Z,1.70
2022-09-06T02:22:28.376Z,1.60
2022-09-06T02:27:31.324Z,1.83
2022-09-06T02:32:40.219Z,1.90
2022-09-06T02:37:43.387Z,2.03
2022-09-06T02:42:46.201Z,1.70
2022-09-06T02:47:50.385Z,1.75
2022-09-06T02:53:03.252Z,1.97
2022-09-06T02:58:07.792Z,1.97
2022-09-06T03:03:15.192Z,2.00
2022-09-06T03:08:18.648Z,1.90
2022-09-06T03:13:21.520Z,1.80
2022-09-06T03:18:25.985Z,2.10
2022-09-06T03:23:30.233Z,2.00
2022-09-06T03:28:33.857Z,1.93
2022-09-06T03:33:38.230Z,2.00
2022-09-06T03:38:41.125Z,2.20
2022-09-06T03:43:43.954Z,1.90
2022-09-06T03:48:48.125Z,2.20
2022-09-06T03:53:50.976Z,1.88
2022-09-06T03:58:53.800Z,2.17
2022-09-06T04:03:57.976Z,2.00
2022-09-06T04:09:00.760Z,2.10
2022-09-06T04:14:03.872Z,1.90
2022-09-06T04:19:08.250Z,2.00
2022-09-06T04:24:23.730Z,2.05
2022-09-06T04:29:26.626Z,1.80
2022-09-06T04:34:31.057Z,2.00
2022-09-06T04:39:33.984Z,2.30
2022-09-06T04:44:37.122Z,2.15
2022-09-06T04:49:41.327Z,1.95
2022-09-06T04:54:44.380Z,1.77
2022-09-06T04:59:47.365Z,1.90
2022-09-06T05:04:52.322Z,1.80
2022-09-06T05:09:55.127Z,1.80
2022-09-06T05:14:57.906Z,1.80
2022-09-06T05:20:02.104Z,1.80
2022-09-06T05:25:05.184Z,1.90
2022-09-06T05:30:09.107Z,1.90
2022-09-06T05:35:13.371Z,2.05
2022-09-06T05:40:16.416Z,2.00
2022-09-06T05:45:19.485Z,1.70
2022-09-06T05:50:23.675Z,1.60
2022-09-06T05:55:26.602Z,1.80
2022-09-06T06:00:29.426Z,1.70
2022-09-06T06:05:33.666Z,1.50
2022-09-06T06:10:39.427Z,1.50
2022-09-06T06:15:42.274Z,2.63
2022-09-06T06:20:46.451Z,1.70
2022-09-06T06:25:49.243Z,1.60
2022-09-06T06:30:52.060Z,1.60
2022-09-06T06:36:00.565Z,1.50
2022-09-06T06:41:06.827Z,1.50
2022-09-06T06:46:12.033Z,1.55
2022-09-06T06:51:18.162Z,1.73
2022-09-06T06:56:22.412Z,1.40
2022-09-06T07:01:27.028Z,1.25
2022-09-06T07:11:54.488Z,1.30
2022-09-06T07:16:59.401Z,1.60
2022-09-06T07:22:05.376Z,1.40
2022-09-06T07:32:32.124Z,1.75
2022-09-06T07:37:36.473Z,1.58
2022-09-06T07:42:39.347Z,1.50
2022-09-06T07:47:58.637Z,1.40
2022-09-06T07:53:07.538Z,1.40
2022-09-06T07:58:12.493Z,1.40
2022-09-06T08:03:15.353Z,1.50
2022-09-06T08:13:42.778Z,1.45
2022-09-06T08:18:45.616Z,1.40
2022-09-06T08:23:51.749Z,1.38
2022-09-06T08:28:56.070Z,1.17
2022-09-06T08:34:00.435Z,1.43
2022-09-06T08:39:06.111Z,1.40
2022-09-06T08:49:38.916Z,1.37
2022-09-06T08:54:52.368Z,1.43
2022-09-06T09:00:00.893Z,1.40
2022-09-06T09:05:12.955Z,1.20
2022-09-06T09:10:22.234Z,1.33
2022-09-06T09:15:25.819Z,1.50
2022-09-06T09:20:28.646Z,1.15
2022-09-06T09:25:34.373Z,1.23
2022-09-06T09:30:48.621Z,1.10
2022-09-06T09:35:52.446Z,1.10
2022-09-06T09:40:58.619Z,1.30
2022-09-06T09:46:16.922Z,1.17
2022-09-06T09:51:26.979Z,1.30
2022-09-06T09:56:39.384Z,1.25
2022-09-06T10:01:42.180Z,1.30
2022-09-06T10:12:09.410Z,1.10
2022-09-06T10:17:20.690Z,1.17
2022-09-06T10:22:29.633Z,1.20
2022-09-06T10:27:34.070Z,1.17
2022-09-06T10:32:42.740Z,1.30
2022-09-06T10:37:50.771Z,1.30
2022-09-06T10:42:59.169Z,1.50
2022-09-06T10:48:12.465Z,1.10
2022-09-06T10:53:31.244Z,1.30
2022-09-06T11:04:20.198Z,1.17
2022-09-06T11:09:28.859Z,1.10
2022-09-06T11:14:34.556Z,1.20
2022-09-06T11:19:44.237Z,1.20
2022-09-06T11:25:23.658Z,1.10
2022-09-06T11:30:30.353Z,1.10
2022-09-06T11:35:34.925Z,1.23
2022-09-06T11:40:39.147Z,1.15
2022-09-06T11:45:46.983Z,1.20
2022-09-06T11:51:02.561Z,1.10
2022-09-06T11:56:25.958Z,1.10
2022-09-06T12:01:39.101Z,0.90
2022-09-06T12:06:43.690Z,1.20
2022-09-06T12:11:48.593Z,1.40
2022-09-06T12:17:28.546Z,1.20
2022-09-06T12:23:05.691Z,1.30
2022-09-06T12:28:13.181Z,1.00
2022-09-06T12:33:23.134Z,1.23
2022-09-06T12:38:27.386Z,1.20
2022-09-06T12:43:36.067Z,1.30
2022-09-06T12:48:41.373Z,1.33
2022-09-06T12:53:52.773Z,1.10
2022-09-06T12:59:14.606Z,1.10
2022-09-06T13:04:26.061Z,1.00
2022-09-06T13:09:31.330Z,1.40
2022-09-06T13:14:35.078Z,1.03
2022-09-06T13:19:39.917Z,1.10
2022-09-06T13:24:49.070Z,1.20
2022-09-06T13:29:56.904Z,1.20
2022-09-06T13:35:01.067Z,1.20
2022-09-06T13:40:53.789Z,1.30
2022-09-06T13:46:11.742Z,1.10
2022-09-06T13:51:14.666Z,1.10
2022-09-06T13:56:18.781Z,1.45
2022-09-06T14:01:21.789Z,1.30
2022-09-06T14:06:24.621Z,1.20
2022-09-06T14:11:29.050Z,1.50
2022-09-06T14:16:32.667Z,1.30
2022-09-06T14:21:35.581Z,1.27
2022-09-06T14:26:40.006Z,1.20
2022-09-06T14:31:42.801Z,2.33
2022-09-06T14:36:45.821Z,1.20
2022-09-06T14:41:50.537Z,1.10
2022-09-06T14:46:54.638Z,1.10
2022-09-06T14:51:57.625Z,1.10
2022-09-06T14:57:01.990Z,1.10
2022-09-06T15:02:05.431Z,1.30
2022-09-06T15:07:08.748Z,1.10
2022-09-06T15:12:13.024Z,1.00
2022-09-06T15:17:15.949Z,1.30
2022-09-06T15:22:18.834Z,1.10
2022-09-06T15:27:23.285Z,1.20
2022-09-06T15:32:26.170Z,1.23
2022-09-06T15:37:29.031Z,1.25
2022-09-06T15:42:33.320Z,1.10
2022-09-06T15:47:36.982Z,1.10
2022-09-06T15:52:39.950Z,0.93
2022-09-06T15:57:44.185Z,1.20
2022-09-06T16:02:47.088Z,1.00
2022-09-06T16:07:49.993Z,1.10
2022-09-06T16:12:54.581Z,1.08
2022-09-06T16:17:57.878Z,1.00
2022-09-06T16:23:00.750Z,1.00
2022-09-06T16:28:05.062Z,1.10
2022-09-06T16:33:07.948Z,1.20
2022-09-06T16:38:11.076Z,1.03
2022-09-06T16:43:15.751Z,1.20
2022-09-06T16:48:18.612Z,1.13
2022-09-06T16:53:22.271Z,1.00
2022-09-06T16:58:26.845Z,1.10
2022-09-06T17:03:30.033Z,0.90
2022-09-06T17:08:34.278Z,0.90
2022-09-06T17:13:39.024Z,0.90
2022-09-06T17:18:42.003Z,0.90
2022-09-06T17:23:44.939Z,0.90
2022-09-06T17:28:50.186Z,0.90
2022-09-06T17:33:53.895Z,0.90
2022-09-06T17:39:01.517Z,0.95
2022-09-06T17:44:06.731Z,0.90
2022-09-06T17:49:10.113Z,1.00
2022-09-06T17:54:14.084Z,1.10
2022-09-06T17:59:18.652Z,1.17
2022-09-06T18:04:21.538Z,0.90
2022-09-06T18:09:24.479Z,0.90
2022-09-06T18:14:29.516Z,0.80
2022-09-06T18:19:32.388Z,1.10
2022-09-06T18:24:35.280Z,0.80
2022-09-06T18:29:39.535Z,0.75
2022-09-06T18:34:42.400Z,0.70
2022-09-06T18:39:45.368Z,0.73
2022-09-06T18:44:50.036Z,1.02
2022-09-06T18:49:52.907Z,1.00
2022-09-06T18:54:55.770Z,0.80
2022-09-06T18:59:59.998Z,1.00
2022-09-06T19:05:02.853Z,0.83
2022-09-06T19:10:06.452Z,0.90
2022-09-06T19:15:11.867Z,0.90
2022-09-06T19:20:14.771Z,0.93
2022-09-06T19:25:17.675Z,0.80
2022-09-06T19:30:21.908Z,0.90
2022-09-06T19:35:24.801Z,0.90
2022-09-06T19:40:27.655Z,1.00
2022-09-06T19:45:31.895Z,0.80
2022-09-06T19:50:35.030Z,1.10
2022-09-06T19:55:37.872Z,1.03
2022-09-06T20:00:43.137Z,1.07
2022-09-06T20:05:46.130Z,0.80
2022-09-06T20:10:56.585Z,0.88
2022-09-06T20:16:00.916Z,0.90
2022-09-06T20:21:03.961Z,0.90
2022-09-06T20:26:08.492Z,1.00
2022-09-06T20:31:15.455Z,1.00
2022-09-06T20:36:19.306Z,1.00
2022-09-06T20:41:24.545Z,0.98
2022-09-06T20:46:31.197Z,0.90
2022-09-06T20:51:35.576Z,1.10
2022-09-06T20:56:40.258Z,1.05
2022-09-06T21:01:45.855Z,1.10
2022-09-06T21:06:50.971Z,1.10
2022-09-06T21:11:54.286Z,1.10
2022-09-06T21:16:59.130Z,1.20
2022-09-06T21:22:01.964Z,1.20
2022-09-06T21:27:05.021Z,1.08
2022-09-06T21:32:09.615Z,1.10
2022-09-06T21:37:12.461Z,1.33
2022-09-06T21:42:15.340Z,1.20
2022-09-06T21:47:19.561Z,1.10
2022-09-06T21:52:22.403Z,1.40
2022-09-06T21:57:25.287Z,1.00
2022-09-06T22:02:29.627Z,1.13
2022-09-06T22:07:32.549Z,0.90
2022-09-06T22:12:35.428Z,1.40
2022-09-06T22:17:39.676Z,1.38
2022-09-06T22:22:43.984Z,1.15
2022-09-06T22:27:46.832Z,1.30
2022-09-06T22:32:51.167Z,1.40
2022-09-06T22:37:54.602Z,1.17
2022-09-06T22:42:57.453Z,1.38
2022-09-06T22:48:01.711Z,1.30
2022-09-06T22:53:04.555Z,1.50
2022-09-06T22:58:07.525Z,1.40
2022-09-06T23:03:11.879Z,1.40
2022-09-06T23:08:15.726Z,1.42
2022-09-06T23:13:18.607Z,1.45
2022-09-06T23:18:22.820Z,1.40
2022-09-06T23:23:25.692Z,1.23
2022-09-06T23:28:29.461Z,1.58
2022-09-06T23:33:36.093Z,1.70
2022-09-06T23:38:40.885Z,1.67
2022-09-06T23:43:44.483Z,1.52
2022-09-06T23:48:48.730Z,1.40
2022-09-06T23:53:51.754Z,1.60
2022-09-06T23:58:54.675Z,1.50
